sensor_id;sensor_type;location;lat;lon;timestamp;P1;durP1;ratioP1;P2;durP2;ratioP2
5819;SDS011;2936;47.348;9.640;2022-07-04T00:01:22;3.13;;;2.23;;
5819;SDS011;2936;47.348;9.640;2022-07-04T00:03:50;2.40;;;2.30;;
5819;SDS011;2936;47.348;9.640;2022-07-04T00:06:17;2.60;;;2.40;;
5819;SDS011;2936;47.348;9.640;2022-07-04T00:08:45;2.93;;;2.20;;
5819;SDS011;2936;47.348;9.640;2022-07-04T00:11:12;2.50;;;2.40;;
5819;SDS011;2936;47.348;9.640;2022-07-04T00:13:40;2.70;;;2.50;;
5819;SDS011;2936;47.348;9.640;2022-07-04T00:16:09;3.90;;;2.57;;
5819;SDS011;2936;47.348;9.640;2022-07-04T00:18:36;2.60;;;2.50;;
5819;SDS011;2936;47.348;9.640;2022-07-04T00:21:05;2.10;;;2.00;;
5819;SDS011;2936;47.348;9.640;2022-07-04T00:23:32;2.20;;;2.10;;
5819;SDS011;2936;47.348;9.640;2022-07-04T00:25:59;2.97;;;2.30;;
5819;SDS011;2936;47.348;9.640;2022-07-04T00:28:27;2.40;;;2.30;;
5819;SDS011;2936;47.348;9.640;2022-07-04T00:30:55;3.10;;;2.17;;
5819;SDS011;2936;47.348;9.640;2022-07-04T00:33:23;2.27;;;2.17;;
5819;SDS011;2936;47.348;9.640;2022-07-04T00:35:51;2.37;;;2.13;;
5819;SDS011;2936;47.348;9.640;2022-07-04T00:38:19;3.30;;;2.80;;
5819;SDS011;2936;47.348;9.640;2022-07-04T00:40:46;8.73;;;2.50;;
5819;SDS011;2936;47.348;9.640;2022-07-04T00:43:20;3.17;;;2.17;;
5819;SDS011;2936;47.348;9.640;2022-07-04T00:45:47;2.10;;;2.00;;
5819;SDS011;2936;47.348;9.640;2022-07-04T00:48:15;2.43;;;2.17;;
5819;SDS011;2936;47.348;9.640;2022-07-04T00:50:45;2.60;;;2.40;;
5819;SDS011;2936;47.348;9.640;2022-07-04T00:53:13;2.10;;;2.00;;
5819;SDS011;2936;47.348;9.640;2022-07-04T00:55:41;2.40;;;2.00;;
5819;SDS011;2936;47.348;9.640;2022-07-04T00:58:08;2.27;;;2.17;;
5819;SDS011;2936;47.348;9.640;2022-07-04T01:00:36;2.47;;;2.37;;
5819;SDS011;2936;47.348;9.640;2022-07-04T01:03:04;1.80;;;1.70;;
5819;SDS011;2936;47.348;9.640;2022-07-04T01:05:31;2.50;;;2.30;;
5819;SDS011;2936;47.348;9.640;2022-07-04T01:08:00;2.27;;;2.17;;
5819;SDS011;2936;47.348;9.640;2022-07-04T01:10:28;2.03;;;1.90;;
5819;SDS011;2936;47.348;9.640;2022-07-04T01:12:58;2.30;;;2.10;;
5819;SDS011;2936;47.348;9.640;2022-07-04T01:15:26;3.17;;;2.40;;
5819;SDS011;2936;47.348;9.640;2022-07-04T01:17:53;1.67;;;1.57;;
5819;SDS011;2936;47.348;9.640;2022-07-04T01:20:22;2.17;;;2.07;;
5819;SDS011;2936;47.348;9.640;2022-07-04T01:22:51;1.93;;;1.83;;
5819;SDS011;2936;47.348;9.640;2022-07-04T01:25:19;2.30;;;2.13;;
5819;SDS011;2936;47.348;9.640;2022-07-04T01:27:46;4.73;;;2.07;;
5819;SDS011;2936;47.348;9.640;2022-07-04T01:30:13;2.17;;;1.97;;
5819;SDS011;2936;47.348;9.640;2022-07-04T01:32:41;2.70;;;2.53;;
5819;SDS011;2936;47.348;9.640;2022-07-04T01:35:08;3.00;;;2.10;;
5819;SDS011;2936;47.348;9.640;2022-07-04T01:37:39;1.70;;;1.70;;
5819;SDS011;2936;47.348;9.640;2022-07-04T01:40:07;1.80;;;1.70;;
5819;SDS011;2936;47.348;9.640;2022-07-04T01:42:34;2.03;;;1.93;;
5819;SDS011;2936;47.348;9.640;2022-07-04T01:45:02;2.03;;;1.93;;
5819;SDS011;2936;47.348;9.640;2022-07-04T01:47:29;1.83;;;1.73;;
5819;SDS011;2936;47.348;9.640;2022-07-04T01:49:57;2.03;;;1.93;;
5819;SDS011;2936;47.348;9.640;2022-07-04T01:52:25;2.30;;;2.20;;
5819;SDS011;2936;47.348;9.640;2022-07-04T01:54:54;1.47;;;1.47;;
5819;SDS011;2936;47.348;9.640;2022-07-04T01:57:22;2.50;;;1.90;;
5819;SDS011;2936;47.348;9.640;2022-07-04T01:59:49;3.47;;;1.80;;
5819;SDS011;2936;47.348;9.640;2022-07-04T02:02:34;2.13;;;2.03;;
5819;SDS011;2936;47.348;9.640;2022-07-04T02:05:01;2.20;;;1.80;;
5819;SDS011;2936;47.348;9.640;2022-07-04T02:07:29;3.30;;;1.90;;
5819;SDS011;2936;47.348;9.640;2022-07-04T02:09:58;2.23;;;2.03;;
5819;SDS011;2936;47.348;9.640;2022-07-04T02:12:25;1.73;;;1.63;;
5819;SDS011;2936;47.348;9.640;2022-07-04T02:15:10;1.90;;;1.80;;
5819;SDS011;2936;47.348;9.640;2022-07-04T02:17:37;1.93;;;1.83;;
5819;SDS011;2936;47.348;9.640;2022-07-04T02:20:05;1.97;;;1.80;;
5819;SDS011;2936;47.348;9.640;2022-07-04T02:22:33;2.00;;;1.70;;
5819;SDS011;2936;47.348;9.640;2022-07-04T02:25:02;1.90;;;1.80;;
5819;SDS011;2936;47.348;9.640;2022-07-04T02:30:26;2.00;;;1.90;;
5819;SDS011;2936;47.348;9.640;2022-07-04T02:32:54;1.90;;;1.80;;
5819;SDS011;2936;47.348;9.640;2022-07-04T02:35:22;1.73;;;1.70;;
5819;SDS011;2936;47.348;9.640;2022-07-04T02:37:52;3.03;;;2.50;;
5819;SDS011;2936;47.348;9.640;2022-07-04T02:40:21;2.10;;;1.90;;
5819;SDS011;2936;47.348;9.640;2022-07-04T02:42:48;1.70;;;1.70;;
5819;SDS011;2936;47.348;9.640;2022-07-04T02:45:16;2.13;;;1.93;;
5819;SDS011;2936;47.348;9.640;2022-07-04T02:47:43;2.10;;;2.00;;
5819;SDS011;2936;47.348;9.640;2022-07-04T02:50:11;2.60;;;1.80;;
5819;SDS011;2936;47.348;9.640;2022-07-04T02:52:38;2.30;;;1.87;;
5819;SDS011;2936;47.348;9.640;2022-07-04T02:55:06;2.27;;;2.07;;
5819;SDS011;2936;47.348;9.640;2022-07-04T02:57:35;2.10;;;2.00;;
5819;SDS011;2936;47.348;9.640;2022-07-04T03:00:03;2.27;;;1.90;;
5819;SDS011;2936;47.348;9.640;2022-07-04T03:02:31;2.20;;;2.00;;
5819;SDS011;2936;47.348;9.640;2022-07-04T03:05:03;1.90;;;1.80;;
5819;SDS011;2936;47.348;9.640;2022-07-04T03:07:34;2.10;;;2.00;;
5819;SDS011;2936;47.348;9.640;2022-07-04T03:10:01;2.37;;;2.17;;
5819;SDS011;2936;47.348;9.640;2022-07-04T03:12:29;2.47;;;2.37;;
5819;SDS011;2936;47.348;9.640;2022-07-04T03:14:57;6.70;;;2.33;;
5819;SDS011;2936;47.348;9.640;2022-07-04T03:17:26;2.17;;;2.07;;
5819;SDS011;2936;47.348;9.640;2022-07-04T03:19:58;2.30;;;2.20;;
5819;SDS011;2936;47.348;9.640;2022-07-04T03:22:35;2.60;;;2.37;;
5819;SDS011;2936;47.348;9.640;2022-07-04T03:25:03;3.13;;;2.10;;
5819;SDS011;2936;47.348;9.640;2022-07-04T03:27:31;2.10;;;2.00;;
5819;SDS011;2936;47.348;9.640;2022-07-04T03:29:59;3.67;;;2.40;;
5819;SDS011;2936;47.348;9.640;2022-07-04T03:32:27;4.20;;;2.37;;
5819;SDS011;2936;47.348;9.640;2022-07-04T03:34:54;2.57;;;2.47;;
5819;SDS011;2936;47.348;9.640;2022-07-04T03:37:22;2.47;;;2.27;;
5819;SDS011;2936;47.348;9.640;2022-07-04T03:39:49;2.90;;;2.30;;
5819;SDS011;2936;47.348;9.640;2022-07-04T03:42:17;3.13;;;2.73;;
5819;SDS011;2936;47.348;9.640;2022-07-04T03:44:44;2.27;;;2.17;;
5819;SDS011;2936;47.348;9.640;2022-07-04T03:47:13;2.63;;;2.43;;
5819;SDS011;2936;47.348;9.640;2022-07-04T03:49:41;2.27;;;2.07;;
5819;SDS011;2936;47.348;9.640;2022-07-04T03:52:08;3.63;;;2.70;;
5819;SDS011;2936;47.348;9.640;2022-07-04T03:54:36;3.07;;;1.83;;
5819;SDS011;2936;47.348;9.640;2022-07-04T03:57:04;2.23;;;2.13;;
5819;SDS011;2936;47.348;9.640;2022-07-04T03:59:32;6.60;;;2.00;;
5819;SDS011;2936;47.348;9.640;2022-07-04T04:02:07;2.00;;;1.90;;
5819;SDS011;2936;47.348;9.640;2022-07-04T04:04:50;2.00;;;1.90;;
5819;SDS011;2936;47.348;9.640;2022-07-04T04:07:34;2.60;;;2.40;;
5819;SDS011;2936;47.348;9.640;2022-07-04T04:10:02;3.27;;;2.33;;
5819;SDS011;2936;47.348;9.640;2022-07-04T04:12:30;8.10;;;2.43;;
5819;SDS011;2936;47.348;9.640;2022-07-04T04:14:57;2.30;;;2.20;;
5819;SDS011;2936;47.348;9.640;2022-07-04T04:17:24;3.50;;;2.50;;
5819;SDS011;2936;47.348;9.640;2022-07-04T04:19:53;4.17;;;2.80;;
5819;SDS011;2936;47.348;9.640;2022-07-04T04:22:21;9.33;;;3.20;;
5819;SDS011;2936;47.348;9.640;2022-07-04T04:24:49;4.50;;;2.87;;
5819;SDS011;2936;47.348;9.640;2022-07-04T04:27:16;2.97;;;2.77;;
5819;SDS011;2936;47.348;9.640;2022-07-04T04:29:43;3.17;;;2.57;;
5819;SDS011;2936;47.348;9.640;2022-07-04T04:32:11;6.90;;;3.00;;
5819;SDS011;2936;47.348;9.640;2022-07-04T04:34:38;3.00;;;2.80;;
5819;SDS011;2936;47.348;9.640;2022-07-04T04:37:07;3.60;;;3.13;;
5819;SDS011;2936;47.348;9.640;2022-07-04T04:39:37;7.30;;;3.47;;
5819;SDS011;2936;47.348;9.640;2022-07-04T04:42:05;6.03;;;3.03;;
5819;SDS011;2936;47.348;9.640;2022-07-04T04:44:32;3.00;;;2.70;;
5819;SDS011;2936;47.348;9.640;2022-07-04T04:47:00;3.23;;;2.93;;
5819;SDS011;2936;47.348;9.640;2022-07-04T04:49:27;5.90;;;3.10;;
5819;SDS011;2936;47.348;9.640;2022-07-04T04:51:55;3.27;;;2.97;;
5819;SDS011;2936;47.348;9.640;2022-07-04T04:54:24;6.33;;;3.30;;
5819;SDS011;2936;47.348;9.640;2022-07-04T04:56:54;3.83;;;2.80;;
5819;SDS011;2936;47.348;9.640;2022-07-04T04:59:21;3.50;;;3.30;;
5819;SDS011;2936;47.348;9.640;2022-07-04T05:01:52;3.37;;;3.20;;
5819;SDS011;2936;47.348;9.640;2022-07-04T05:04:19;3.17;;;2.83;;
5819;SDS011;2936;47.348;9.640;2022-07-04T05:06:47;4.20;;;3.90;;
5819;SDS011;2936;47.348;9.640;2022-07-04T05:09:14;4.60;;;4.00;;
5819;SDS011;2936;47.348;9.640;2022-07-04T05:11:43;14.53;;;3.90;;
5819;SDS011;2936;47.348;9.640;2022-07-04T05:14:11;4.53;;;3.37;;
5819;SDS011;2936;47.348;9.640;2022-07-04T05:16:39;4.43;;;3.40;;
5819;SDS011;2936;47.348;9.640;2022-07-04T05:19:06;6.60;;;3.33;;
5819;SDS011;2936;47.348;9.640;2022-07-04T05:21:34;6.30;;;3.70;;
5819;SDS011;2936;47.348;9.640;2022-07-04T05:24:02;12.87;;;3.80;;
5819;SDS011;2936;47.348;9.640;2022-07-04T05:26:29;4.30;;;3.90;;
5819;SDS011;2936;47.348;9.640;2022-07-04T05:28:58;3.33;;;3.13;;
5819;SDS011;2936;47.348;9.640;2022-07-04T05:31:26;5.53;;;3.33;;
5819;SDS011;2936;47.348;9.640;2022-07-04T05:33:54;3.70;;;3.50;;
5819;SDS011;2936;47.348;9.640;2022-07-04T05:36:21;3.90;;;3.60;;
5819;SDS011;2936;47.348;9.640;2022-07-04T05:38:49;7.13;;;3.90;;
5819;SDS011;2936;47.348;9.640;2022-07-04T05:41:16;9.03;;;4.17;;
5819;SDS011;2936;47.348;9.640;2022-07-04T05:43:44;9.00;;;4.67;;
5819;SDS011;2936;47.348;9.640;2022-07-04T05:46:13;9.63;;;4.10;;
5819;SDS011;2936;47.348;9.640;2022-07-04T05:48:41;6.77;;;4.37;;
5819;SDS011;2936;47.348;9.640;2022-07-04T05:51:09;6.40;;;4.27;;
5819;SDS011;2936;47.348;9.640;2022-07-04T05:53:36;8.20;;;4.17;;
5819;SDS011;2936;47.348;9.640;2022-07-04T05:56:04;5.90;;;4.20;;
5819;SDS011;2936;47.348;9.640;2022-07-04T05:58:33;4.97;;;3.70;;
5819;SDS011;2936;47.348;9.640;2022-07-04T06:01:00;6.23;;;4.10;;
5819;SDS011;2936;47.348;9.640;2022-07-04T06:03:29;9.07;;;3.57;;
5819;SDS011;2936;47.348;9.640;2022-07-04T06:05:57;3.80;;;3.50;;
5819;SDS011;2936;47.348;9.640;2022-07-04T06:08:25;3.87;;;3.60;;
5819;SDS011;2936;47.348;9.640;2022-07-04T06:10:52;5.70;;;3.77;;
5819;SDS011;2936;47.348;9.640;2022-07-04T06:13:20;4.67;;;4.20;;
5819;SDS011;2936;47.348;9.640;2022-07-04T06:15:47;5.07;;;4.47;;
5819;SDS011;2936;47.348;9.640;2022-07-04T06:18:15;5.50;;;4.90;;
5819;SDS011;2936;47.348;9.640;2022-07-04T06:20:44;10.43;;;4.70;;
5819;SDS011;2936;47.348;9.640;2022-07-04T06:23:11;4.37;;;3.97;;
5819;SDS011;2936;47.348;9.640;2022-07-04T06:25:39;3.90;;;3.70;;
5819;SDS011;2936;47.348;9.640;2022-07-04T06:28:06;7.60;;;3.50;;
5819;SDS011;2936;47.348;9.640;2022-07-04T06:30:34;6.20;;;4.10;;
5819;SDS011;2936;47.348;9.640;2022-07-04T06:33:01;6.40;;;3.70;;
5819;SDS011;2936;47.348;9.640;2022-07-04T06:35:29;5.93;;;4.30;;
5819;SDS011;2936;47.348;9.640;2022-07-04T06:38:15;5.50;;;4.87;;
5819;SDS011;2936;47.348;9.640;2022-07-04T06:40:43;3.27;;;3.07;;
5819;SDS011;2936;47.348;9.640;2022-07-04T06:43:10;4.50;;;4.13;;
5819;SDS011;2936;47.348;9.640;2022-07-04T06:45:38;7.13;;;3.93;;
5819;SDS011;2936;47.348;9.640;2022-07-04T06:48:06;3.80;;;3.50;;
5819;SDS011;2936;47.348;9.640;2022-07-04T06:50:33;5.40;;;4.13;;
5819;SDS011;2936;47.348;9.640;2022-07-04T06:53:01;3.73;;;3.53;;
5819;SDS011;2936;47.348;9.640;2022-07-04T06:55:36;3.90;;;3.70;;
5819;SDS011;2936;47.348;9.640;2022-07-04T06:58:04;9.10;;;3.87;;
5819;SDS011;2936;47.348;9.640;2022-07-04T07:00:32;6.90;;;3.40;;
5819;SDS011;2936;47.348;9.640;2022-07-04T07:03:00;4.30;;;3.90;;
5819;SDS011;2936;47.348;9.640;2022-07-04T07:05:28;13.37;;;4.00;;
5819;SDS011;2936;47.348;9.640;2022-07-04T07:07:56;6.63;;;4.23;;
5819;SDS011;2936;47.348;9.640;2022-07-04T07:10:23;4.53;;;3.87;;
5819;SDS011;2936;47.348;9.640;2022-07-04T07:12:52;5.50;;;3.70;;
5819;SDS011;2936;47.348;9.640;2022-07-04T07:15:20;3.80;;;3.60;;
5819;SDS011;2936;47.348;9.640;2022-07-04T07:17:47;7.17;;;3.60;;
5819;SDS011;2936;47.348;9.640;2022-07-04T07:20:15;3.43;;;3.17;;
5819;SDS011;2936;47.348;9.640;2022-07-04T07:22:44;3.97;;;3.67;;
5819;SDS011;2936;47.348;9.640;2022-07-04T07:25:13;3.90;;;3.60;;
5819;SDS011;2936;47.348;9.640;2022-07-04T07:27:41;4.03;;;3.30;;
5819;SDS011;2936;47.348;9.640;2022-07-04T07:30:11;4.30;;;3.90;;
5819;SDS011;2936;47.348;9.640;2022-07-04T07:32:40;7.30;;;3.60;;
5819;SDS011;2936;47.348;9.640;2022-07-04T07:35:08;3.87;;;3.57;;
5819;SDS011;2936;47.348;9.640;2022-07-04T07:37:36;4.40;;;3.40;;
5819;SDS011;2936;47.348;9.640;2022-07-04T07:40:04;10.13;;;3.77;;
5819;SDS011;2936;47.348;9.640;2022-07-04T07:42:32;6.30;;;3.33;;
5819;SDS011;2936;47.348;9.640;2022-07-04T07:44:59;6.60;;;3.93;;
5819;SDS011;2936;47.348;9.640;2022-07-04T07:47:28;3.70;;;3.40;;
5819;SDS011;2936;47.348;9.640;2022-07-04T07:49:59;3.87;;;3.40;;
5819;SDS011;2936;47.348;9.640;2022-07-04T07:52:28;4.33;;;3.10;;
5819;SDS011;2936;47.348;9.640;2022-07-04T07:54:56;3.93;;;3.60;;
5819;SDS011;2936;47.348;9.640;2022-07-04T07:57:26;4.10;;;3.80;;
5819;SDS011;2936;47.348;9.640;2022-07-04T07:59:53;3.40;;;3.20;;
5819;SDS011;2936;47.348;9.640;2022-07-04T08:02:21;3.70;;;3.50;;
5819;SDS011;2936;47.348;9.640;2022-07-04T08:05:13;4.07;;;3.40;;
5819;SDS011;2936;47.348;9.640;2022-07-04T08:07:39;3.03;;;2.40;;
5819;SDS011;2936;47.348;9.640;2022-07-04T08:10:19;2.80;;;2.70;;
5819;SDS011;2936;47.348;9.640;2022-07-04T08:12:48;3.20;;;3.00;;
5819;SDS011;2936;47.348;9.640;2022-07-04T08:15:17;6.50;;;4.37;;
5819;SDS011;2936;47.348;9.640;2022-07-04T08:17:44;3.70;;;2.60;;
5819;SDS011;2936;47.348;9.640;2022-07-04T08:20:13;3.20;;;2.90;;
5819;SDS011;2936;47.348;9.640;2022-07-04T08:22:44;3.37;;;3.07;;
5819;SDS011;2936;47.348;9.640;2022-07-04T08:25:11;2.93;;;2.50;;
5819;SDS011;2936;47.348;9.640;2022-07-04T08:27:40;3.17;;;2.87;;
5819;SDS011;2936;47.348;9.640;2022-07-04T08:30:07;2.93;;;2.73;;
5819;SDS011;2936;47.348;9.640;2022-07-04T08:32:35;3.43;;;2.80;;
5819;SDS011;2936;47.348;9.640;2022-07-04T08:35:03;4.83;;;3.60;;
5819;SDS011;2936;47.348;9.640;2022-07-04T08:37:33;3.40;;;3.10;;
5819;SDS011;2936;47.348;9.640;2022-07-04T08:40:00;2.70;;;2.60;;
5819;SDS011;2936;47.348;9.640;2022-07-04T08:42:33;4.10;;;2.70;;
5819;SDS011;2936;47.348;9.640;2022-07-04T08:45:02;2.77;;;2.67;;
5819;SDS011;2936;47.348;9.640;2022-07-04T08:47:30;3.33;;;3.03;;
5819;SDS011;2936;47.348;9.640;2022-07-04T08:50:02;2.80;;;2.57;;
5819;SDS011;2936;47.348;9.640;2022-07-04T08:52:37;2.87;;;2.67;;
5819;SDS011;2936;47.348;9.640;2022-07-04T08:55:05;3.00;;;2.67;;
5819;SDS011;2936;47.348;9.640;2022-07-04T08:57:51;5.60;;;3.00;;
5819;SDS011;2936;47.348;9.640;2022-07-04T09:00:36;4.73;;;3.90;;
5819;SDS011;2936;47.348;9.640;2022-07-04T09:03:04;3.47;;;3.13;;
5819;SDS011;2936;47.348;9.640;2022-07-04T09:05:32;2.63;;;2.43;;
5819;SDS011;2936;47.348;9.640;2022-07-04T09:08:02;5.27;;;3.07;;
5819;SDS011;2936;47.348;9.640;2022-07-04T09:10:29;8.00;;;2.63;;
5819;SDS011;2936;47.348;9.640;2022-07-04T09:12:57;9.80;;;5.20;;
5819;SDS011;2936;47.348;9.640;2022-07-04T09:15:31;6.33;;;3.20;;
5819;SDS011;2936;47.348;9.640;2022-07-04T09:18:25;3.47;;;2.63;;
5819;SDS011;2936;47.348;9.640;2022-07-04T09:21:41;2.53;;;2.43;;
5819;SDS011;2936;47.348;9.640;2022-07-04T09:24:25;5.70;;;2.90;;
5819;SDS011;2936;47.348;9.640;2022-07-04T09:27:15;2.40;;;2.30;;
5819;SDS011;2936;47.348;9.640;2022-07-04T09:30:02;4.50;;;3.03;;
5819;SDS011;2936;47.348;9.640;2022-07-04T09:32:39;2.60;;;2.40;;
5819;SDS011;2936;47.348;9.640;2022-07-04T09:35:07;2.33;;;2.23;;
5819;SDS011;2936;47.348;9.640;2022-07-04T09:37:36;2.37;;;2.20;;
5819;SDS011;2936;47.348;9.640;2022-07-04T09:40:07;4.60;;;2.60;;
5819;SDS011;2936;47.348;9.640;2022-07-04T09:42:38;2.65;;;1.85;;
5819;SDS011;2936;47.348;9.640;2022-07-04T09:45:07;4.03;;;2.83;;
5819;SDS011;2936;47.348;9.640;2022-07-04T09:47:35;2.37;;;2.27;;
5819;SDS011;2936;47.348;9.640;2022-07-04T09:50:07;3.27;;;3.00;;
5819;SDS011;2936;47.348;9.640;2022-07-04T09:52:48;3.13;;;2.53;;
5819;SDS011;2936;47.348;9.640;2022-07-04T09:55:23;4.20;;;2.50;;
5819;SDS011;2936;47.348;9.640;2022-07-04T09:57:51;4.00;;;2.70;;
5819;SDS011;2936;47.348;9.640;2022-07-04T10:00:20;3.00;;;2.80;;
5819;SDS011;2936;47.348;9.640;2022-07-04T10:02:47;2.73;;;2.53;;
5819;SDS011;2936;47.348;9.640;2022-07-04T10:05:21;3.87;;;2.80;;
5819;SDS011;2936;47.348;9.640;2022-07-04T10:07:49;4.27;;;3.87;;
5819;SDS011;2936;47.348;9.640;2022-07-04T10:10:28;4.80;;;3.60;;
5819;SDS011;2936;47.348;9.640;2022-07-04T10:12:57;4.23;;;2.90;;
5819;SDS011;2936;47.348;9.640;2022-07-04T10:15:28;2.40;;;2.23;;
5819;SDS011;2936;47.348;9.640;2022-07-04T10:20:44;3.63;;;3.07;;
5819;SDS011;2936;47.348;9.640;2022-07-04T10:26:16;3.80;;;2.40;;
5819;SDS011;2936;47.348;9.640;2022-07-04T10:30:24;2.60;;;2.40;;
5819;SDS011;2936;47.348;9.640;2022-07-04T10:32:16;3.73;;;2.60;;
5819;SDS011;2936;47.348;9.640;2022-07-04T10:37:57;5.43;;;2.40;;
5819;SDS011;2936;47.348;9.640;2022-07-04T10:40:41;2.60;;;2.50;;
5819;SDS011;2936;47.348;9.640;2022-07-04T10:45:58;3.43;;;2.20;;
5819;SDS011;2936;47.348;9.640;2022-07-04T10:48:48;3.60;;;2.33;;
5819;SDS011;2936;47.348;9.640;2022-07-04T10:51:32;3.43;;;2.10;;
5819;SDS011;2936;47.348;9.640;2022-07-04T10:54:01;2.60;;;2.40;;
5819;SDS011;2936;47.348;9.640;2022-07-04T10:56:51;2.10;;;2.00;;
5819;SDS011;2936;47.348;9.640;2022-07-04T10:59:23;2.73;;;2.00;;
5819;SDS011;2936;47.348;9.640;2022-07-04T11:02:16;2.70;;;2.30;;
5819;SDS011;2936;47.348;9.640;2022-07-04T11:04:50;1.97;;;1.80;;
5819;SDS011;2936;47.348;9.640;2022-07-04T11:07:18;2.30;;;1.87;;
5819;SDS011;2936;47.348;9.640;2022-07-04T11:12:50;2.10;;;1.90;;
5819;SDS011;2936;47.348;9.640;2022-07-04T11:18:24;2.00;;;1.90;;
5819;SDS011;2936;47.348;9.640;2022-07-04T11:20:54;2.60;;;1.97;;
5819;SDS011;2936;47.348;9.640;2022-07-04T11:23:22;8.70;;;2.40;;
5819;SDS011;2936;47.348;9.640;2022-07-04T11:25:50;3.60;;;2.50;;
5819;SDS011;2936;47.348;9.640;2022-07-04T11:28:20;2.00;;;1.90;;
5819;SDS011;2936;47.348;9.640;2022-07-04T11:30:51;2.70;;;2.20;;
5819;SDS011;2936;47.348;9.640;2022-07-04T11:33:25;2.23;;;1.87;;
5819;SDS011;2936;47.348;9.640;2022-07-04T11:36:08;4.90;;;2.20;;
5819;SDS011;2936;47.348;9.640;2022-07-04T11:38:53;2.23;;;1.97;;
5819;SDS011;2936;47.348;9.640;2022-07-04T11:41:28;2.57;;;2.37;;
5819;SDS011;2936;47.348;9.640;2022-07-04T11:44:13;2.50;;;2.27;;
5819;SDS011;2936;47.348;9.640;2022-07-04T11:47:09;2.80;;;2.20;;
5819;SDS011;2936;47.348;9.640;2022-07-04T11:49:46;2.20;;;2.10;;
5819;SDS011;2936;47.348;9.640;2022-07-04T11:52:20;3.67;;;2.10;;
5819;SDS011;2936;47.348;9.640;2022-07-04T11:54:51;3.77;;;1.90;;
5819;SDS011;2936;47.348;9.640;2022-07-04T11:57:21;2.50;;;2.30;;
5819;SDS011;2936;47.348;9.640;2022-07-04T11:59:52;2.20;;;2.10;;
5819;SDS011;2936;47.348;9.640;2022-07-04T12:02:20;1.70;;;1.60;;
5819;SDS011;2936;47.348;9.640;2022-07-04T12:04:49;2.53;;;2.33;;
5819;SDS011;2936;47.348;9.640;2022-07-04T12:07:31;2.37;;;2.27;;
5819;SDS011;2936;47.348;9.640;2022-07-04T12:10:10;2.30;;;2.20;;
5819;SDS011;2936;47.348;9.640;2022-07-04T12:12:50;3.57;;;2.40;;
5819;SDS011;2936;47.348;9.640;2022-07-04T12:15:36;4.03;;;1.90;;
5819;SDS011;2936;47.348;9.640;2022-07-04T12:18:29;3.40;;;2.20;;
5819;SDS011;2936;47.348;9.640;2022-07-04T12:21:11;2.23;;;2.10;;
5819;SDS011;2936;47.348;9.640;2022-07-04T12:23:49;3.00;;;1.90;;
5819;SDS011;2936;47.348;9.640;2022-07-04T12:26:17;2.70;;;2.50;;
5819;SDS011;2936;47.348;9.640;2022-07-04T12:29:24;4.60;;;2.00;;
5819;SDS011;2936;47.348;9.640;2022-07-04T12:32:04;3.10;;;2.07;;
5819;SDS011;2936;47.348;9.640;2022-07-04T12:34:35;4.27;;;1.90;;
5819;SDS011;2936;47.348;9.640;2022-07-04T12:37:09;2.13;;;2.03;;
5819;SDS011;2936;47.348;9.640;2022-07-04T12:39:55;2.10;;;2.00;;
5819;SDS011;2936;47.348;9.640;2022-07-04T12:42:33;2.50;;;2.23;;
5819;SDS011;2936;47.348;9.640;2022-07-04T12:45:15;2.50;;;2.40;;
5819;SDS011;2936;47.348;9.640;2022-07-04T12:47:52;7.37;;;2.60;;
5819;SDS011;2936;47.348;9.640;2022-07-04T12:50:25;4.80;;;2.97;;
5819;SDS011;2936;47.348;9.640;2022-07-04T12:53:05;3.30;;;2.40;;
5819;SDS011;2936;47.348;9.640;2022-07-04T12:55:42;3.90;;;2.77;;
5819;SDS011;2936;47.348;9.640;2022-07-04T13:01:27;2.80;;;2.10;;
5819;SDS011;2936;47.348;9.640;2022-07-04T13:04:16;5.30;;;2.70;;
5819;SDS011;2936;47.348;9.640;2022-07-04T13:06:48;2.70;;;2.60;;
5819;SDS011;2936;47.348;9.640;2022-07-04T13:09:33;3.10;;;3.00;;
5819;SDS011;2936;47.348;9.640;2022-07-04T13:12:02;3.17;;;2.97;;
5819;SDS011;2936;47.348;9.640;2022-07-04T13:14:47;4.20;;;2.67;;
5819;SDS011;2936;47.348;9.640;2022-07-04T13:17:15;4.27;;;2.30;;
5819;SDS011;2936;47.348;9.640;2022-07-04T13:19:42;3.00;;;2.13;;
5819;SDS011;2936;47.348;9.640;2022-07-04T13:22:10;3.70;;;2.50;;
5819;SDS011;2936;47.348;9.640;2022-07-04T13:24:39;2.80;;;2.60;;
5819;SDS011;2936;47.348;9.640;2022-07-04T13:27:09;4.10;;;2.70;;
5819;SDS011;2936;47.348;9.640;2022-07-04T13:29:41;3.33;;;2.87;;
5819;SDS011;2936;47.348;9.640;2022-07-04T13:34:11;4.93;;;2.87;;
5819;SDS011;2936;47.348;9.640;2022-07-04T13:35:22;9.90;;;2.97;;
5819;SDS011;2936;47.348;9.640;2022-07-04T13:37:54;2.67;;;2.47;;
5819;SDS011;2936;47.348;9.640;2022-07-04T13:40:32;3.10;;;2.40;;
5819;SDS011;2936;47.348;9.640;2022-07-04T13:43:21;3.77;;;2.57;;
5819;SDS011;2936;47.348;9.640;2022-07-04T13:45:48;2.77;;;2.60;;
5819;SDS011;2936;47.348;9.640;2022-07-04T13:48:16;2.80;;;2.60;;
5819;SDS011;2936;47.348;9.640;2022-07-04T13:51:05;4.23;;;2.67;;
5819;SDS011;2936;47.348;9.640;2022-07-04T13:53:43;2.40;;;2.30;;
5819;SDS011;2936;47.348;9.640;2022-07-04T13:56:15;2.97;;;2.77;;
5819;SDS011;2936;47.348;9.640;2022-07-04T13:58:52;2.47;;;2.27;;
5819;SDS011;2936;47.348;9.640;2022-07-04T14:04:22;2.83;;;2.63;;
5819;SDS011;2936;47.348;9.640;2022-07-04T14:06:58;2.40;;;2.10;;
5819;SDS011;2936;47.348;9.640;2022-07-04T14:09:44;3.37;;;2.27;;
5819;SDS011;2936;47.348;9.640;2022-07-04T14:18:03;3.17;;;2.87;;
5819;SDS011;2936;47.348;9.640;2022-07-04T14:20:45;2.50;;;2.20;;
5819;SDS011;2936;47.348;9.640;2022-07-04T14:23:32;2.73;;;2.20;;
5819;SDS011;2936;47.348;9.640;2022-07-04T14:26:18;2.37;;;2.27;;
5819;SDS011;2936;47.348;9.640;2022-07-04T14:28:56;3.10;;;2.40;;
5819;SDS011;2936;47.348;9.640;2022-07-04T14:31:24;2.60;;;2.50;;
5819;SDS011;2936;47.348;9.640;2022-07-04T14:34:01;3.73;;;2.93;;
5819;SDS011;2936;47.348;9.640;2022-07-04T14:36:36;2.60;;;2.40;;
5819;SDS011;2936;47.348;9.640;2022-07-04T14:39:08;2.93;;;2.67;;
5819;SDS011;2936;47.348;9.640;2022-07-04T14:41:50;3.93;;;2.73;;
5819;SDS011;2936;47.348;9.640;2022-07-04T14:44:21;7.33;;;2.60;;
5819;SDS011;2936;47.348;9.640;2022-07-04T14:46:51;5.03;;;2.70;;
5819;SDS011;2936;47.348;9.640;2022-07-04T14:49:20;2.40;;;2.17;;
5819;SDS011;2936;47.348;9.640;2022-07-04T14:51:48;3.17;;;2.97;;
5819;SDS011;2936;47.348;9.640;2022-07-04T14:54:21;2.57;;;2.47;;
5819;SDS011;2936;47.348;9.640;2022-07-04T14:56:51;4.60;;;2.63;;
5819;SDS011;2936;47.348;9.640;2022-07-04T14:59:19;4.03;;;2.60;;
5819;SDS011;2936;47.348;9.640;2022-07-04T15:01:52;2.80;;;2.60;;
5819;SDS011;2936;47.348;9.640;2022-07-04T15:04:21;3.17;;;2.83;;
5819;SDS011;2936;47.348;9.640;2022-07-04T15:06:52;8.93;;;3.30;;
5819;SDS011;2936;47.348;9.640;2022-07-04T15:09:20;2.93;;;2.83;;
5819;SDS011;2936;47.348;9.640;2022-07-04T15:11:48;3.10;;;2.90;;
5819;SDS011;2936;47.348;9.640;2022-07-04T15:14:27;3.50;;;3.20;;
5819;SDS011;2936;47.348;9.640;2022-07-04T15:17:07;3.97;;;2.63;;
5819;SDS011;2936;47.348;9.640;2022-07-04T15:20:10;4.67;;;3.43;;
5819;SDS011;2936;47.348;9.640;2022-07-04T15:23:11;10.10;;;4.07;;
5819;SDS011;2936;47.348;9.640;2022-07-04T15:26:17;11.23;;;5.60;;
5819;SDS011;2936;47.348;9.640;2022-07-04T15:29:02;12.13;;;5.17;;
5819;SDS011;2936;47.348;9.640;2022-07-04T15:31:33;12.13;;;5.20;;
5819;SDS011;2936;47.348;9.640;2022-07-04T15:34:20;9.53;;;5.63;;
5819;SDS011;2936;47.348;9.640;2022-07-04T15:39:48;15.00;;;4.70;;
5819;SDS011;2936;47.348;9.640;2022-07-04T15:42:19;11.10;;;4.33;;
5819;SDS011;2936;47.348;9.640;2022-07-04T15:45:12;5.87;;;4.07;;
5819;SDS011;2936;47.348;9.640;2022-07-04T15:47:56;4.50;;;3.77;;
5819;SDS011;2936;47.348;9.640;2022-07-04T15:50:46;6.47;;;3.37;;
5819;SDS011;2936;47.348;9.640;2022-07-04T15:53:24;8.60;;;3.80;;
5819;SDS011;2936;47.348;9.640;2022-07-04T15:56:07;6.00;;;3.70;;
5819;SDS011;2936;47.348;9.640;2022-07-04T16:01:18;9.77;;;4.17;;
5819;SDS011;2936;47.348;9.640;2022-07-04T16:03:48;13.03;;;4.30;;
5819;SDS011;2936;47.348;9.640;2022-07-04T16:06:29;5.03;;;3.87;;
5819;SDS011;2936;47.348;9.640;2022-07-04T16:09:10;4.03;;;3.10;;
5819;SDS011;2936;47.348;9.640;2022-07-04T16:15:01;2.93;;;2.73;;
5819;SDS011;2936;47.348;9.640;2022-07-04T16:23:22;5.03;;;3.30;;
5819;SDS011;2936;47.348;9.640;2022-07-04T16:25:57;2.80;;;2.00;;
5819;SDS011;2936;47.348;9.640;2022-07-04T16:28:27;3.30;;;2.37;;
5819;SDS011;2936;47.348;9.640;2022-07-04T16:31:38;3.40;;;2.60;;
5819;SDS011;2936;47.348;9.640;2022-07-04T16:34:06;1.90;;;1.80;;